Portada
METAR-TAF:

METAR-TAF

Aeropuertos :

Aeropuerto de Córdoba

Córdoba, España

latitud: 37-51N, longitud: 004-51W, altitud: 90 m

Observación

El informe se hizo hace 35 minutos, a las 19:00 UTC
Viento 5 kt del oeste, variando entre oeste-suroeste y noroeste
Temperatura 24°C
Humedad 41%
Presión 1022 hPa
Visibilidad 10 km o más
sin nubes por debajo de 1500 m y sin presencia de cumulonimbus.

METAR: LEBA 191900Z AUTO 28005KT 240V310 CAVOK 24/10 Q1022

Hora: 21:35 (19:35 UTC)

Pronóstico

El informe se hizo hace 5 horas y 35 minutos, a las 14:00 UTC
Pronóstico válido del 19 a las 15 UTC al 20 a las 15 UTC
Viento 5 kt del este
Visibilidad 10 km o más
sin nubes por debajo de 1500 m y sin presencia de cumulonimbus.
Probabilidad 40% :
Temporalmente
del 19 a las 17 UTC al 19 a las 21 UTC
Viento 10 kt del oeste-suroeste

TAF: LEBA 191400Z 1915/2015 08005KT CAVOK TX31/2015Z TN12/2006Z PROB40 TEMPO 1917/1921 25010KT

Observaciones y pronósticos meteorológicos de más de 4000 aeropuertos (mensajes METAR y TAF).

Los puntos amarillos y rojos representan las estaciones disponibles.

Ponga el ratón en el punto deseado para ver el nombre de la estación.

Haga clic para ver las observaciones y los pronósticos meteorológicos.

Para cambiar el mapa : haga clic en los botones verdes con una cruz de color negro para hacer un zoom, en el botón verde con un guión para alejar o en las flechas verdes para mapas adyacentes.


METAR-TAF: